Terminal Aerodrome Forecast
Issued by NWS

Home | Current Version | Previous Version | Text Only | Print | Product List | Glossary On
Versions: 1 2 3 4 5 6 7 8 9 10 11 12
000
FTUS43 KDDC 221720
TAFHYS
TAF
KHYS 221720Z 2218/2318 33015G23KT P6SM FEW250
     FM230000 32008KT P6SM SKC
     FM231500 17010KT P6SM SCT200=

USA.gov is the U.S. government's official web portal to all federal, state and local government web resources and services.